createdAt,value
2022-10-21T00:00:54.795Z,99535.22
2022-10-21T00:03:22.984Z,99530.66
2022-10-21T00:05:50.673Z,99513.72
2022-10-21T00:08:18.827Z,99516.63
2022-10-21T00:10:46.221Z,99519.75
2022-10-21T00:13:13.255Z,99502.00
2022-10-21T00:15:40.174Z,99490.66
2022-10-21T00:18:07.170Z,99489.84
2022-10-21T00:20:37.329Z,99496.50
2022-10-21T00:23:07.163Z,99495.69
2022-10-21T00:25:34.136Z,99499.41
2022-10-21T00:28:01.128Z,99473.38
2022-10-21T00:30:28.073Z,99474.19
2022-10-21T00:32:57.200Z,99479.56
2022-10-21T00:35:27.533Z,99465.09
2022-10-21T00:37:54.500Z,99477.47
2022-10-21T00:40:21.443Z,99482.00
2022-10-21T00:42:48.586Z,99493.56
2022-10-21T00:45:21.291Z,99499.75
2022-10-21T00:48:13.803Z,99520.44
2022-10-21T00:50:53.972Z,99515.88
2022-10-21T00:53:22.280Z,99510.16
2022-10-21T00:55:55.559Z,99499.19
2022-10-21T00:58:28.684Z,99474.78
2022-10-21T01:00:57.798Z,99474.19
2022-10-21T01:03:27.659Z,99451.06
2022-10-21T01:05:57.423Z,99454.00
2022-10-21T01:08:25.762Z,99443.69
2022-10-21T01:10:53.562Z,99455.09
2022-10-21T01:14:10.519Z,99450.66
2022-10-21T01:17:04.061Z,99445.94
2022-10-21T01:20:18.657Z,99446.03
2022-10-21T01:23:25.056Z,99418.22
2022-10-21T01:26:24.730Z,99410.41
2022-10-21T01:29:02.944Z,99426.28
2022-10-21T01:32:30.103Z,99425.47
2022-10-21T01:35:11.598Z,99437.25
2022-10-21T01:38:19.829Z,99432.94
2022-10-21T01:41:15.309Z,99415.16
2022-10-21T01:44:27.418Z,99413.53
2022-10-21T01:47:17.573Z,99404.88
2022-10-21T01:49:55.183Z,99403.25
2022-10-21T01:52:23.086Z,99392.50
2022-10-21T01:55:08.579Z,99397.31
2022-10-21T01:57:44.718Z,99388.63
2022-10-21T02:00:12.457Z,99392.59
2022-10-21T02:02:45.701Z,99402.50
2022-10-21T02:05:23.796Z,99393.03
2022-10-21T02:07:50.791Z,99402.94
2022-10-21T02:10:19.719Z,99393.50
2022-10-21T02:12:51.255Z,99385.69
2022-10-21T02:15:19.954Z,99388.56
2022-10-21T02:17:57.024Z,99381.78
2022-10-21T02:20:30.966Z,99384.47
2022-10-21T02:22:58.387Z,99383.88
2022-10-21T02:25:29.775Z,99381.44
2022-10-21T02:27:57.084Z,99377.94
2022-10-21T02:30:24.440Z,99375.84
2022-10-21T02:33:08.758Z,99374.22
2022-10-21T02:36:10.594Z,99371.53
2022-10-21T02:39:03.272Z,99388.22
2022-10-21T02:41:31.948Z,99381.56
2022-10-21T02:44:04.547Z,99372.25
2022-10-21T02:46:44.003Z,99358.38
2022-10-21T02:49:11.008Z,99344.72
2022-10-21T02:51:38.076Z,99326.78
2022-10-21T02:54:05.096Z,99310.66
2022-10-21T02:56:32.108Z,99311.72
2022-10-21T02:58:59.089Z,99304.13
2022-10-21T03:01:26.104Z,99299.81
2022-10-21T03:03:53.085Z,99299.81
2022-10-21T03:06:20.435Z,99299.00
2022-10-21T03:08:47.482Z,99304.56
2022-10-21T03:11:14.507Z,99291.16
2022-10-21T03:13:41.439Z,99296.53
2022-10-21T03:16:08.543Z,99301.88
2022-10-21T03:18:35.583Z,99309.13
2022-10-21T03:21:02.557Z,99318.00
2022-10-21T03:23:29.607Z,99300.63
2022-10-21T03:25:56.543Z,99297.94
2022-10-21T03:28:23.496Z,99289.91
2022-10-21T03:30:50.507Z,99284.53
2022-10-21T03:33:17.556Z,99289.91
2022-10-21T03:35:44.743Z,99290.72
2022-10-21T03:38:11.687Z,99294.47
2022-10-21T03:40:38.697Z,99303.31
2022-10-21T03:43:05.691Z,99291.78
2022-10-21T03:45:32.643Z,99271.38
2022-10-21T03:47:59.642Z,99292.34
2022-10-21T03:50:26.960Z,99273.81
2022-10-21T03:52:54.877Z,99279.41
2022-10-21T03:55:24.059Z,99278.78
2022-10-21T03:57:51.644Z,99272.84
2022-10-21T04:00:19.682Z,99260.47
2022-10-21T04:02:46.775Z,99264.81
2022-10-21T04:05:14.078Z,99260.25
2022-10-21T04:07:41.673Z,99265.84
2022-10-21T04:10:09.498Z,99260.72
2022-10-21T04:12:36.716Z,99266.09
2022-10-21T04:15:05.536Z,99266.91
2022-10-21T04:17:32.551Z,99253.25
2022-10-21T04:19:59.583Z,99239.59
2022-10-21T04:22:26.505Z,99253.41
2022-10-21T04:24:53.422Z,99252.13
2022-10-21T04:27:20.372Z,99247.31
2022-10-21T04:29:47.290Z,99236.16
2022-10-21T04:32:14.327Z,99239.78
2022-10-21T04:34:41.331Z,99223.44
2022-10-21T04:37:08.249Z,99231.84
2022-10-21T04:39:35.213Z,99234.31
2022-10-21T04:42:02.388Z,99235.13
2022-10-21T04:44:29.367Z,99220.66
2022-10-21T04:46:58.222Z,99224.97
2022-10-21T04:49:25.234Z,99224.16
2022-10-21T04:51:52.176Z,99217.75
2022-10-21T04:54:19.148Z,99215.88
2022-10-21T04:56:46.072Z,99232.81
2022-10-21T04:59:13.136Z,99222.88
2022-10-21T05:01:40.081Z,99222.66
2022-10-21T05:04:07.427Z,99229.06
2022-10-21T05:06:34.379Z,99227.56
2022-10-21T05:09:01.371Z,99230.81
2022-10-21T05:11:28.475Z,99238.31
2022-10-21T05:13:55.450Z,99240.97
2022-10-21T05:16:23.895Z,99226.75
2022-10-21T05:18:50.986Z,99235.16
2022-10-21T05:21:17.966Z,99219.16
2022-10-21T05:23:44.943Z,99214.97
2022-10-21T05:26:11.880Z,99207.06
2022-10-21T05:28:38.805Z,99216.84
2022-10-21T05:31:05.846Z,99223.88
2022-10-21T05:33:32.922Z,99228.19
2022-10-21T05:36:07.649Z,99235.78
2022-10-21T05:38:35.375Z,99234.50
2022-10-21T05:41:02.729Z,99239.63
2022-10-21T05:43:29.968Z,99238.94
2022-10-21T05:45:57.550Z,99237.66
2022-10-21T05:48:24.985Z,99236.97
2022-10-21T05:50:54.359Z,99236.25
2022-10-21T05:53:23.949Z,99234.50
2022-10-21T05:56:00.173Z,99240.84
2022-10-21T05:58:28.483Z,99229.63
2022-10-21T06:00:55.750Z,99235.84
2022-10-21T06:03:29.996Z,99231.03
2022-10-21T06:06:03.040Z,99235.94
2022-10-21T06:08:32.390Z,99227.03
2022-10-21T06:11:04.795Z,99235.22
2022-10-21T06:13:32.824Z,99237.91
2022-10-21T06:16:00.570Z,99243.28
2022-10-21T06:18:28.386Z,99244.34
2022-10-21T06:20:55.818Z,99243.78
2022-10-21T06:23:23.105Z,99238.84
2022-10-21T06:26:19.626Z,99255.91
2022-10-21T06:28:46.642Z,99266.50
2022-10-21T06:31:17.104Z,99254.00
2022-10-21T06:33:44.631Z,99260.31
2022-10-21T06:36:11.615Z,99255.88
2022-10-21T06:38:38.710Z,99256.31
2022-10-21T06:41:13.016Z,99246.50
2022-10-21T06:43:41.754Z,99240.00
2022-10-21T06:46:13.293Z,99246.84
2022-10-21T06:48:41.162Z,99248.34
2022-10-21T06:51:14.870Z,99246.72
2022-10-21T06:53:42.994Z,99253.63
2022-10-21T06:56:16.443Z,99259.44
2022-10-21T06:58:48.954Z,99258.84
2022-10-21T07:01:34.791Z,99274.97
2022-10-21T07:04:10.161Z,99277.66
2022-10-21T07:06:37.249Z,99277.66
2022-10-21T07:09:09.214Z,99293.75
2022-10-21T07:11:36.820Z,99298.88
2022-10-21T07:14:04.498Z,99291.22
2022-10-21T07:16:35.495Z,99292.38
2022-10-21T07:19:03.459Z,99279.56
2022-10-21T07:21:31.318Z,99283.41
2022-10-21T07:24:00.035Z,99304.44
2022-10-21T07:26:30.590Z,99307.69
2022-10-21T07:28:59.647Z,99291.34
2022-10-21T07:31:28.115Z,99282.03
2022-10-21T07:33:55.166Z,99287.41
2022-10-21T07:36:26.429Z,99291.72
2022-10-21T07:38:58.370Z,99309.47
2022-10-21T07:41:30.262Z,99307.84
2022-10-21T07:43:58.517Z,99307.59
2022-10-21T07:46:25.646Z,99319.16
2022-10-21T07:48:52.884Z,99309.22
2022-10-21T07:51:27.011Z,99300.13
2022-10-21T07:53:59.365Z,99302.56
2022-10-21T07:56:32.538Z,99304.81
2022-10-21T07:59:01.458Z,99299.19
2022-10-21T08:01:29.143Z,99291.72
2022-10-21T08:03:57.131Z,99295.00
2022-10-21T08:06:25.795Z,99318.94
2022-10-21T08:08:53.449Z,99316.84
2022-10-21T08:11:23.264Z,99323.84
2022-10-21T08:13:50.473Z,99332.28
2022-10-21T08:16:17.463Z,99322.09
2022-10-21T08:18:44.624Z,99325.19
2022-10-21T08:21:12.188Z,99328.22
2022-10-21T08:23:39.382Z,99325.91
2022-10-21T08:26:12.164Z,99311.97
2022-10-21T08:28:39.641Z,99316.66
2022-10-21T08:31:16.932Z,99305.69
2022-10-21T08:33:44.925Z,99310.59
2022-10-21T08:36:16.468Z,99303.13
2022-10-21T08:38:43.892Z,99310.94
2022-10-21T08:41:32.239Z,99305.56
2022-10-21T08:44:36.509Z,99309.88
2022-10-21T08:47:44.933Z,99316.91
2022-10-21T08:50:30.266Z,99321.69
2022-10-21T08:53:04.383Z,99337.81
2022-10-21T08:55:35.350Z,99328.94
2022-10-21T08:58:06.016Z,99331.63
2022-10-21T09:00:50.467Z,99337.81
2022-10-21T09:03:47.772Z,99327.88
2022-10-21T09:06:44.244Z,99339.69
2022-10-21T09:09:37.503Z,99341.56
2022-10-21T09:12:24.775Z,99341.56
2022-10-21T09:15:25.790Z,99347.75
2022-10-21T09:18:14.578Z,99348.81
2022-10-21T09:20:58.505Z,99357.94
2022-10-21T09:24:05.591Z,99354.41
2022-10-21T09:26:44.453Z,99356.88
2022-10-21T09:29:34.511Z,99361.44
2022-10-21T09:32:22.983Z,99363.88
2022-10-21T09:35:06.107Z,99369.00
2022-10-21T09:37:40.363Z,99366.94
2022-10-21T09:40:20.887Z,99374.75
2022-10-21T09:42:52.767Z,99376.38
2022-10-21T09:45:43.740Z,99380.25
2022-10-21T09:48:19.905Z,99389.97
2022-10-21T09:50:58.222Z,99385.72
2022-10-21T09:53:45.933Z,99387.16
2022-10-21T09:56:45.038Z,99387.72
2022-10-21T09:59:15.026Z,99385.88
2022-10-21T10:01:43.627Z,99388.56
2022-10-21T10:04:31.029Z,99378.41
2022-10-21T10:07:27.197Z,99382.94
2022-10-21T10:09:54.305Z,99384.59
2022-10-21T10:12:27.855Z,99390.19
2022-10-21T10:14:55.631Z,99395.56
2022-10-21T10:17:37.039Z,99397.22
2022-10-21T10:20:04.034Z,99399.91
2022-10-21T10:22:47.726Z,99401.53
2022-10-21T10:25:22.813Z,99413.13
2022-10-21T10:28:08.175Z,99416.63
2022-10-21T10:30:41.214Z,99402.34
2022-10-21T10:33:33.113Z,99414.50
2022-10-21T10:36:05.356Z,99427.94
2022-10-21T10:38:45.113Z,99422.13
2022-10-21T10:41:16.901Z,99412.75
2022-10-21T10:43:53.784Z,99419.53
2022-10-21T10:46:34.603Z,99423.66
2022-10-21T10:49:15.485Z,99426.91
2022-10-21T10:51:47.062Z,99432.66
2022-10-21T10:54:24.952Z,99427.28
2022-10-21T10:57:01.308Z,99427.63
2022-10-21T10:59:46.824Z,99412.66
2022-10-21T11:02:48.037Z,99416.50
2022-10-21T11:05:43.974Z,99420.81
2022-10-21T11:08:18.286Z,99413.34
2022-10-21T11:10:57.233Z,99411.22
2022-10-21T11:13:24.947Z,99420.69
2022-10-21T11:16:16.647Z,99414.88
2022-10-21T11:19:22.919Z,99418.13
2022-10-21T11:21:56.050Z,99414.97
2022-10-21T11:24:33.752Z,99415.91
2022-10-21T11:27:27.585Z,99403.84
2022-10-21T11:30:23.395Z,99410.16
2022-10-21T11:33:38.262Z,99397.03
2022-10-21T11:36:24.702Z,99403.38
2022-10-21T11:39:23.617Z,99407.81
2022-10-21T11:42:40.786Z,99407.31
2022-10-21T11:45:59.683Z,99413.63
2022-10-21T11:48:29.567Z,99408.25
2022-10-21T11:51:28.231Z,99411.06
2022-10-21T11:54:01.426Z,99409.75
2022-10-21T11:56:52.347Z,99403.91
2022-10-21T11:59:28.231Z,99401.78
2022-10-21T12:02:16.865Z,99410.09
2022-10-21T12:05:01.405Z,99395.31
2022-10-21T12:07:54.504Z,99405.38
2022-10-21T12:10:30.357Z,99396.50
2022-10-21T12:13:16.492Z,99397.06
2022-10-21T12:15:55.307Z,99395.78
2022-10-21T12:18:24.207Z,99397.16
2022-10-21T12:20:54.139Z,99409.31
2022-10-21T12:23:26.077Z,99411.81
2022-10-21T12:26:08.992Z,99414.81
2022-10-21T12:29:08.310Z,99410.03
2022-10-21T12:32:06.455Z,99402.28
2022-10-21T12:34:34.253Z,99402.03
2022-10-21T12:37:02.059Z,99401.31
2022-10-21T12:39:35.118Z,99405.97
2022-10-21T12:42:28.766Z,99399.84
2022-10-21T12:44:55.706Z,99401.47
2022-10-21T12:47:44.430Z,99407.47
2022-10-21T12:50:14.395Z,99398.06
2022-10-21T12:52:46.281Z,99400.75
2022-10-21T12:55:24.538Z,99394.91
2022-10-21T12:58:02.787Z,99392.78
2022-10-21T13:00:29.715Z,99383.16
2022-10-21T13:03:07.811Z,99389.66
2022-10-21T13:05:37.485Z,99379.44
2022-10-21T13:08:22.770Z,99375.47
2022-10-21T13:11:04.517Z,99373.91
2022-10-21T13:13:45.332Z,99378.81
2022-10-21T13:16:18.596Z,99388.53
2022-10-21T13:18:59.110Z,99388.28
2022-10-21T13:21:47.182Z,99385.13
2022-10-21T13:24:33.888Z,99382.97
2022-10-21T13:27:05.855Z,99367.88
2022-10-21T13:29:45.428Z,99369.50
2022-10-21T13:32:21.822Z,99363.78
2022-10-21T13:34:48.779Z,99354.41
2022-10-21T13:37:23.966Z,99366.25
2022-10-21T13:39:52.587Z,99370.31
2022-10-21T13:42:24.123Z,99373.25
2022-10-21T13:45:04.149Z,99370.56
2022-10-21T13:47:34.857Z,99375.97
2022-10-21T13:50:25.967Z,99381.81
2022-10-21T13:52:55.315Z,99388.06
2022-10-21T13:55:26.154Z,99387.22
2022-10-21T13:57:56.050Z,99394.50
2022-10-21T14:00:32.145Z,99386.09
2022-10-21T14:03:05.940Z,99379.06
2022-10-21T14:05:46.320Z,99381.19
2022-10-21T14:08:53.936Z,99378.72
2022-10-21T14:11:32.205Z,99380.59
2022-10-21T14:14:08.374Z,99381.19
2022-10-21T14:16:40.766Z,99378.47
2022-10-21T14:19:16.571Z,99374.75
2022-10-21T14:21:47.584Z,99379.88
2022-10-21T14:24:47.889Z,99369.66
2022-10-21T14:27:23.019Z,99374.50
2022-10-21T14:29:50.334Z,99365.34
2022-10-21T14:32:20.844Z,99361.81
2022-10-21T14:35:21.249Z,99366.72
2022-10-21T14:37:52.614Z,99369.41
2022-10-21T14:40:42.655Z,99366.50
2022-10-21T14:43:12.665Z,99350.53
2022-10-21T14:45:48.267Z,99347.84
2022-10-21T14:48:23.832Z,99357.00
2022-10-21T14:51:16.517Z,99350.22
2022-10-21T14:53:59.643Z,99356.69
2022-10-21T14:56:38.433Z,99353.41
2022-10-21T14:59:40.757Z,99355.28
2022-10-21T15:02:30.402Z,99357.97
2022-10-21T15:05:01.153Z,99366.31
2022-10-21T15:07:28.889Z,99360.59
2022-10-21T15:10:04.255Z,99351.94
2022-10-21T15:12:47.460Z,99346.22
2022-10-21T15:15:44.468Z,99336.72
2022-10-21T15:18:29.506Z,99340.19
2022-10-21T15:21:01.956Z,99337.72
2022-10-21T15:23:43.493Z,99347.34
2022-10-21T15:26:30.363Z,99347.56
2022-10-21T15:28:57.664Z,99350.78
2022-10-21T15:31:28.078Z,99352.91
2022-10-21T15:33:57.232Z,99354.19
2022-10-21T15:36:24.490Z,99354.13
2022-10-21T15:38:51.598Z,99354.59
2022-10-21T15:41:21.117Z,99353.78
2022-10-21T15:44:28.031Z,99361.53
2022-10-21T15:47:00.821Z,99374.41
2022-10-21T15:49:34.045Z,99371.41
2022-10-21T15:52:01.590Z,99376.44
2022-10-21T15:54:28.586Z,99378.56
2022-10-21T15:56:57.759Z,99365.09
2022-10-21T15:59:33.495Z,99362.88
2022-10-21T16:02:00.969Z,99373.63
2022-10-21T16:04:37.024Z,99368.50
2022-10-21T16:07:24.146Z,99352.59
2022-10-21T16:09:51.161Z,99354.94
2022-10-21T16:12:21.087Z,99345.22
2022-10-21T16:14:48.165Z,99350.03
2022-10-21T16:17:15.155Z,99348.31
2022-10-21T16:19:42.356Z,99348.56
2022-10-21T16:22:22.158Z,99347.13
2022-10-21T16:24:49.064Z,99357.09
2022-10-21T16:27:26.610Z,99358.66
2022-10-21T16:30:26.524Z,99351.03
2022-10-21T16:32:53.993Z,99350.97
2022-10-21T16:35:21.735Z,99343.91
2022-10-21T16:37:49.628Z,99348.47
2022-10-21T16:40:31.695Z,99353.50
2022-10-21T16:42:58.967Z,99351.06
2022-10-21T16:45:31.391Z,99355.59
2022-10-21T16:48:00.957Z,99350.72
2022-10-21T16:50:44.871Z,99356.09
2022-10-21T16:53:16.657Z,99361.13
2022-10-21T16:55:43.622Z,99363.25
2022-10-21T16:58:10.680Z,99365.13
2022-10-21T17:00:37.683Z,99368.28
2022-10-21T17:03:05.060Z,99367.69
2022-10-21T17:05:32.091Z,99372.25
2022-10-21T17:07:59.851Z,99374.63
2022-10-21T17:10:26.939Z,99381.06
2022-10-21T17:12:58.700Z,99375.88
2022-10-21T17:15:27.098Z,99375.88
2022-10-21T17:17:54.465Z,99366.88
2022-10-21T17:20:21.472Z,99371.25
2022-10-21T17:22:48.472Z,99375.81
2022-10-21T17:25:15.393Z,99361.50
2022-10-21T17:27:42.525Z,99371.13
2022-10-21T17:30:11.503Z,99376.97
2022-10-21T17:32:38.485Z,99379.06
2022-10-21T17:35:06.021Z,99381.19
2022-10-21T17:37:32.953Z,99366.09
2022-10-21T17:39:59.857Z,99376.25
2022-10-21T17:42:26.781Z,99374.63
2022-10-21T17:44:53.871Z,99372.44
2022-10-21T17:47:20.820Z,99367.28
2022-10-21T17:49:48.455Z,99357.81
2022-10-21T17:52:15.374Z,99352.66
2022-10-21T17:54:42.392Z,99352.91
2022-10-21T17:57:11.109Z,99356.66
2022-10-21T17:59:38.274Z,99354.41
2022-10-21T18:02:05.430Z,99348.22
2022-10-21T18:04:33.371Z,99349.28
2022-10-21T18:07:00.349Z,99356.53
2022-10-21T18:09:27.510Z,99354.91
2022-10-21T18:11:54.653Z,99351.59
2022-10-21T18:14:21.686Z,99341.09
2022-10-21T18:16:48.689Z,99348.34
2022-10-21T18:19:17.133Z,99345.91
2022-10-21T18:21:44.076Z,99342.38
2022-10-21T18:24:12.681Z,99337.84
2022-10-21T18:26:39.965Z,99335.38
2022-10-21T18:29:06.903Z,99337.84
2022-10-21T18:31:36.434Z,99345.09
2022-10-21T18:34:05.186Z,99354.78
2022-10-21T18:36:34.031Z,99350.22
2022-10-21T18:39:01.651Z,99355.34
2022-10-21T18:41:28.886Z,99350.22
2022-10-21T18:44:04.917Z,99348.34
2022-10-21T18:46:39.776Z,99354.19
2022-10-21T18:49:15.709Z,99350.91
2022-10-21T18:51:42.784Z,99344.47
2022-10-21T18:54:09.741Z,99343.91
2022-10-21T18:56:37.041Z,99355.72
2022-10-21T18:59:05.304Z,99350.34
2022-10-21T19:01:32.358Z,99359.47
2022-10-21T19:03:59.418Z,99355.94
2022-10-21T19:06:43.458Z,99364.22
2022-10-21T19:09:17.667Z,99366.91
2022-10-21T19:11:45.408Z,99366.09
2022-10-21T19:14:14.868Z,99380.34
2022-10-21T19:16:43.953Z,99377.09
2022-10-21T19:19:12.009Z,99380.03
2022-10-21T19:21:38.950Z,99396.97
2022-10-21T19:24:06.902Z,99390.53
2022-10-21T19:26:37.088Z,99397.78
2022-10-21T19:29:17.733Z,99389.97
2022-10-21T19:34:16.544Z,99381.88
2022-10-21T19:36:44.386Z,99382.94
2022-10-21T19:39:13.648Z,99380.72
2022-10-21T19:41:40.953Z,99378.03
2022-10-21T19:44:09.016Z,99377.44
2022-10-21T19:46:37.600Z,99375.81
2022-10-21T19:49:06.765Z,99367.75
2022-10-21T19:51:37.323Z,99369.38
2022-10-21T19:54:08.526Z,99375.81
2022-10-21T19:56:36.846Z,99379.75
2022-10-21T19:59:07.216Z,99379.56
2022-10-21T20:01:35.762Z,99379.56
2022-10-21T20:04:04.566Z,99379.56
2022-10-21T20:06:35.339Z,99369.63
2022-10-21T20:09:07.619Z,99379.75
2022-10-21T20:11:36.177Z,99382.25
2022-10-21T20:14:04.635Z,99370.88
2022-10-21T20:16:38.975Z,99374.63
2022-10-21T20:19:07.977Z,99373.56
2022-10-21T20:21:36.997Z,99374.63
2022-10-21T20:24:04.928Z,99383.25
2022-10-21T20:26:32.232Z,99393.00
2022-10-21T20:29:03.438Z,99401.88
2022-10-21T20:31:30.923Z,99412.63
2022-10-21T20:33:57.929Z,99418.81
2022-10-21T20:36:34.599Z,99436.22
2022-10-21T20:39:03.041Z,99433.75
2022-10-21T20:41:34.684Z,99432.13
2022-10-21T20:44:04.546Z,99433.19
2022-10-21T20:46:35.044Z,99434.81
2022-10-21T20:49:03.294Z,99427.81
2022-10-21T20:51:30.869Z,99421.38
2022-10-21T20:54:08.036Z,99413.31
2022-10-21T20:56:38.562Z,99413.88
2022-10-21T20:59:07.729Z,99413.88
2022-10-21T21:01:41.897Z,99403.38
2022-10-21T21:04:13.042Z,99402.31
2022-10-21T21:06:42.491Z,99389.13
2022-10-21T21:14:29.963Z,99393.44
2022-10-21T21:16:57.108Z,99400.44
2022-10-21T21:19:24.229Z,99406.88
2022-10-21T21:21:51.166Z,99411.19
2022-10-21T21:24:18.152Z,99411.81
2022-10-21T21:26:45.130Z,99412.63
2022-10-21T21:29:13.399Z,99431.19
2022-10-21T21:31:41.200Z,99440.91
2022-10-21T21:34:09.160Z,99448.72
2022-10-21T21:36:36.783Z,99446.84
2022-10-21T21:39:06.609Z,99453.91
2022-10-21T21:41:34.733Z,99436.47
2022-10-21T21:44:01.755Z,99426.78
2022-10-21T21:46:28.746Z,99419.53
2022-10-21T21:49:05.090Z,99430.03
2022-10-21T21:51:35.770Z,99423.84
2022-10-21T21:54:05.148Z,99416.84
2022-10-21T21:56:32.271Z,99437.28
2022-10-21T21:58:59.356Z,99441.38
2022-10-21T22:01:29.515Z,99430.63
2022-10-21T22:03:57.523Z,99424.44
2022-10-21T22:06:29.645Z,99410.97
2022-10-21T22:08:57.457Z,99403.72
2022-10-21T22:11:27.967Z,99397.53
2022-10-21T22:13:54.993Z,99401.88
2022-10-21T22:16:24.283Z,99397.53
2022-10-21T22:18:51.837Z,99390.53
2022-10-21T22:21:19.346Z,99394.84
2022-10-21T22:23:48.897Z,99394.28
2022-10-21T22:26:18.258Z,99394.28
2022-10-21T22:28:46.128Z,99388.91
2022-10-21T22:31:19.294Z,99393.69
2022-10-21T22:33:47.015Z,99388.53
2022-10-21T22:36:16.765Z,99371.59
2022-10-21T22:38:44.876Z,99430.28
2022-10-21T22:41:12.951Z,99393.69
2022-10-21T22:43:43.806Z,99400.94
2022-10-21T22:48:58.366Z,99431.19
2022-10-21T22:51:25.548Z,99427.47
2022-10-21T22:53:55.528Z,99428.50
2022-10-21T22:56:25.765Z,99423.13
2022-10-21T22:58:53.271Z,99418.44
2022-10-21T23:01:20.403Z,99418.44
2022-10-21T23:03:47.468Z,99431.66
2022-10-21T23:06:14.509Z,99444.88
2022-10-21T23:08:41.694Z,99433.31
2022-10-21T23:11:08.764Z,99413.31
2022-10-21T23:13:35.781Z,99409.00
2022-10-21T23:16:02.752Z,99431.53
2022-10-21T23:18:29.731Z,99438.78
2022-10-21T23:20:56.672Z,99442.50
2022-10-21T23:23:23.619Z,99466.94
2022-10-21T23:25:50.599Z,99457.81
2022-10-21T23:30:45.429Z,99496.06
2022-10-21T23:33:12.404Z,99487.16
2022-10-21T23:35:39.598Z,99483.66
2022-10-21T23:38:34.583Z,99477.69
2022-10-21T23:41:01.528Z,99483.06
2022-10-21T23:43:28.528Z,99484.91
2022-10-21T23:45:55.543Z,99482.22
2022-10-21T23:48:22.634Z,99484.09
2022-10-21T23:50:49.672Z,99491.72
2022-10-21T23:53:18.821Z,99475.59
2022-10-21T23:55:45.772Z,99470.22
2022-10-21T23:58:13.275Z,99465.66
